Time;durP1;ratioP1;P1;durP2;ratioP2;P2;SDS_P1;SDS_P2;PMS_P1;PMS_P2;Temp;Humidity;BMP_temperature;BMP_pressure;BME280_temperature;BME280_humidity;BME280_pressure;Samples;Min_cycle;Max_cycle;Signal;HPM_P1;HPM_P2
2022/11/27 00:01:09;;;;;;;4.68;2.63;;;;;;;;;;5070772;28;20052;-61
2022/11/27 00:03:35;;;;;;;9.50;3.58;;;;;;;;;;5064971;28;20132;-61
2022/11/27 00:06:01;;;;;;;10.32;4.00;;;;;;;;;;5071760;28;20127;-61
2022/11/27 00:08:27;;;;;;;10.75;3.83;;;;;;;;;;5070326;28;20761;-61
2022/11/27 00:10:53;;;;;;;10.52;3.80;;;;;;;;;;5065448;28;20052;-61
2022/11/27 00:13:19;;;;;;;8.68;3.55;;;;;;;;;;5064248;28;20040;-61
2022/11/27 00:15:45;;;;;;;6.70;3.55;;;;;;;;;;5065451;28;20178;-61
2022/11/27 00:18:11;;;;;;;7.00;3.13;;;;;;;;;;5064743;28;20040;-61
2022/11/27 00:20:37;;;;;;;5.97;2.83;;;;;;;;;;5063819;28;20043;-61
2022/11/27 00:23:03;;;;;;;7.93;2.70;;;;;;;;;;5072173;28;20043;-61
2022/11/27 00:25:30;;;;;;;6.85;2.90;;;;;;;;;;5065961;28;20036;-61
2022/11/27 00:27:56;;;;;;;6.53;3.00;;;;;;;;;;5064909;28;20131;-61
2022/11/27 00:30:22;;;;;;;3.70;2.13;;;;;;;;;;5064849;28;20048;-61
2022/11/27 00:32:48;;;;;;;4.22;2.70;;;;;;;;;;5065518;28;20050;-61
2022/11/27 00:35:13;;;;;;;7.55;2.85;;;;;;;;;;5064332;28;20395;-61
2022/11/27 00:37:40;;;;;;;4.85;3.17;;;;;;;;;;5065841;28;20041;-61
2022/11/27 00:40:06;;;;;;;6.50;2.95;;;;;;;;;;5064518;28;20048;-61
2022/11/27 00:42:32;;;;;;;10.55;4.15;;;;;;;;;;5064344;28;20094;-61
2022/11/27 00:44:58;;;;;;;9.25;3.17;;;;;;;;;;5065525;28;20057;-60
2022/11/27 00:47:24;;;;;;;9.27;3.50;;;;;;;;;;5064244;28;20110;-61
2022/11/27 00:49:50;;;;;;;4.88;3.05;;;;;;;;;;5064616;28;20036;-61
2022/11/27 00:52:16;;;;;;;6.38;3.58;;;;;;;;;;5064610;28;20491;-61
2022/11/27 00:54:42;;;;;;;9.93;5.00;;;;;;;;;;5065225;28;20143;-61
2022/11/27 00:57:08;;;;;;;8.40;3.38;;;;;;;;;;5064876;28;20048;-61
2022/11/27 00:59:34;;;;;;;6.07;3.58;;;;;;;;;;5064978;28;20124;-60
2022/11/27 01:02:00;;;;;;;9.27;4.70;;;;;;;;;;5064431;28;20139;-61
2022/11/27 01:04:25;;;;;;;9.38;4.70;;;;;;;;;;5064281;28;20040;-60
2022/11/27 01:06:51;;;;;;;7.63;4.50;;;;;;;;;;5065630;28;20064;-61
2022/11/27 01:09:17;;;;;;;8.85;3.72;;;;;;;;;;5064844;28;20037;-61
2022/11/27 01:11:43;;;;;;;6.95;3.90;;;;;;;;;;5069519;28;20133;-61
2022/11/27 01:14:12;;;;;;;7.50;3.75;;;;;;;;;;5068830;28;20056;-61
2022/11/27 01:16:37;;;;;;;12.20;4.47;;;;;;;;;;5068219;28;20109;-61
2022/11/27 01:19:04;;;;;;;12.15;3.65;;;;;;;;;;5069086;28;20449;-61
2022/11/27 01:21:31;;;;;;;10.80;4.03;;;;;;;;;;5068387;28;20044;-61
2022/11/27 01:23:57;;;;;;;5.25;3.42;;;;;;;;;;5068381;28;20040;-61
2022/11/27 01:26:23;;;;;;;8.50;3.97;;;;;;;;;;5068356;28;20139;-61
2022/11/27 01:28:54;;;;;;;7.95;4.72;;;;;;;;;;5068946;28;20045;-60
2022/11/27 01:31:21;;;;;;;6.80;3.65;;;;;;;;;;5067428;28;20099;-60
2022/11/27 01:33:47;;;;;;;7.13;4.00;;;;;;;;;;5066892;28;20115;-61
2022/11/27 01:36:15;;;;;;;5.90;4.10;;;;;;;;;;5067927;28;20098;-60
2022/11/27 01:38:41;;;;;;;5.05;3.22;;;;;;;;;;5067461;28;20083;-61
2022/11/27 01:41:07;;;;;;;6.65;3.45;;;;;;;;;;5068270;28;20090;-61
2022/11/27 01:43:42;;;;;;;7.55;4.55;;;;;;;;;;5068107;28;20048;-61
2022/11/27 01:46:28;;;;;;;10.98;4.60;;;;;;;;;;5065083;28;20052;-61
2022/11/27 01:48:57;;;;;;;11.05;5.18;;;;;;;;;;5068859;28;20068;-61
2022/11/27 01:51:23;;;;;;;11.82;4.70;;;;;;;;;;5066917;28;20056;-61
2022/11/27 01:53:51;;;;;;;8.45;4.30;;;;;;;;;;5068495;28;20036;-61
2022/11/27 01:56:17;;;;;;;12.20;5.45;;;;;;;;;;5067276;28;20102;-61
2022/11/27 01:58:43;;;;;;;9.25;4.63;;;;;;;;;;5068052;28;20044;-61
2022/11/27 02:01:09;;;;;;;6.80;3.40;;;;;;;;;;5067451;28;20079;-61
2022/11/27 02:03:35;;;;;;;7.65;4.45;;;;;;;;;;5068139;28;20040;-61
2022/11/27 02:06:01;;;;;;;7.18;4.50;;;;;;;;;;5067117;28;20090;-61
2022/11/27 02:08:27;;;;;;;6.90;4.07;;;;;;;;;;5066790;28;20044;-61
2022/11/27 02:11:06;;;;;;;11.10;4.28;;;;;;;;;;5068138;28;20045;-61
2022/11/27 02:13:37;;;;;;;8.15;3.90;;;;;;;;;;5066642;28;20048;-61
2022/11/27 02:16:09;;;;;;;8.77;3.90;;;;;;;;;;5068152;28;20049;-61
2022/11/27 02:18:53;;;;;;;8.45;3.58;;;;;;;;;;5067775;28;20064;-61
2022/11/27 02:21:25;;;;;;;7.40;4.47;;;;;;;;;;5064893;28;20052;-61
2022/11/27 02:24:12;;;;;;;8.88;4.30;;;;;;;;;;5066511;28;20042;-61
2022/11/27 02:26:47;;;;;;;9.00;4.80;;;;;;;;;;5066138;28;20098;-61
2022/11/27 02:29:14;;;;;;;12.50;4.88;;;;;;;;;;5064816;28;20045;-61
2022/11/27 02:31:40;;;;;;;8.82;4.80;;;;;;;;;;5068035;28;20129;-61
2022/11/27 02:34:22;;;;;;;11.80;4.05;;;;;;;;;;5066866;28;20080;-61
2022/11/27 02:36:52;;;;;;;8.73;3.97;;;;;;;;;;5067784;28;20392;-61
2022/11/27 02:39:21;;;;;;;10.88;4.75;;;;;;;;;;5066643;28;20526;-61
2022/11/27 02:41:50;;;;;;;13.45;5.55;;;;;;;;;;5066530;28;20032;-61
2022/11/27 02:44:17;;;;;;;11.65;5.00;;;;;;;;;;5066685;28;20664;-61
2022/11/27 02:46:44;;;;;;;7.15;3.75;;;;;;;;;;5067779;28;20068;-61
2022/11/27 02:49:12;;;;;;;6.65;3.97;;;;;;;;;;5066446;28;20044;-61
2022/11/27 02:51:42;;;;;;;8.82;4.47;;;;;;;;;;5066999;28;20051;-61
2022/11/27 02:54:11;;;;;;;9.35;4.80;;;;;;;;;;5062959;28;20499;-61
2022/11/27 02:56:38;;;;;;;11.60;6.03;;;;;;;;;;5067431;28;20036;-61
2022/11/27 02:59:05;;;;;;;11.38;5.22;;;;;;;;;;5067528;28;20052;-61
2022/11/27 03:01:34;;;;;;;11.18;5.85;;;;;;;;;;5065780;28;20060;-61
2022/11/27 03:04:01;;;;;;;12.40;5.10;;;;;;;;;;5067221;28;20050;-61
2022/11/27 03:06:37;;;;;;;9.85;5.75;;;;;;;;;;5065949;28;20141;-61
2022/11/27 03:09:08;;;;;;;14.63;4.25;;;;;;;;;;5066446;28;20411;-61
2022/11/27 03:11:34;;;;;;;10.48;4.82;;;;;;;;;;5066520;28;20040;-61
2022/11/27 03:14:03;;;;;;;9.52;5.50;;;;;;;;;;5067087;28;20067;-61
2022/11/27 03:16:37;;;;;;;10.23;4.97;;;;;;;;;;5065429;28;20044;-61
2022/11/27 03:19:03;;;;;;;11.38;5.18;;;;;;;;;;5066965;28;20110;-61
2022/11/27 03:21:29;;;;;;;10.43;4.45;;;;;;;;;;5065740;28;20470;-61
2022/11/27 03:23:56;;;;;;;8.68;4.90;;;;;;;;;;5066031;28;20036;-61
2022/11/27 03:26:22;;;;;;;9.93;4.53;;;;;;;;;;5066251;28;20383;-61
2022/11/27 03:28:50;;;;;;;13.38;5.03;;;;;;;;;;5064621;28;20652;-61
2022/11/27 03:31:16;;;;;;;9.38;4.72;;;;;;;;;;5065216;28;20074;-61
2022/11/27 03:33:42;;;;;;;9.95;5.15;;;;;;;;;;5066478;28;20415;-60
2022/11/27 03:36:12;;;;;;;8.98;5.22;;;;;;;;;;5065882;28;20054;-61
2022/11/27 03:38:38;;;;;;;6.82;4.88;;;;;;;;;;5066590;28;20044;-61
2022/11/27 03:41:09;;;;;;;11.00;5.05;;;;;;;;;;5066992;28;20230;-61
2022/11/27 03:43:39;;;;;;;14.68;5.15;;;;;;;;;;5066282;28;20041;-61
2022/11/27 03:46:08;;;;;;;7.82;5.03;;;;;;;;;;5078673;28;20131;-61
2022/11/27 03:48:50;;;;;;;6.78;4.35;;;;;;;;;;5066402;28;20977;-61
2022/11/27 03:51:19;;;;;;;7.00;4.55;;;;;;;;;;5063053;28;20044;-61
2022/11/27 03:53:48;;;;;;;8.10;4.57;;;;;;;;;;5066743;28;20407;-61
2022/11/27 03:56:14;;;;;;;7.05;4.05;;;;;;;;;;5066190;28;20040;-60
2022/11/27 03:58:58;;;;;;;6.80;3.40;;;;;;;;;;5066073;28;20530;-61
2022/11/27 04:01:25;;;;;;;10.93;4.93;;;;;;;;;;5066060;28;20040;-61
2022/11/27 04:03:51;;;;;;;7.95;4.70;;;;;;;;;;5066849;28;20136;-61
2022/11/27 04:06:17;;;;;;;8.25;4.15;;;;;;;;;;5064496;28;20128;-61
2022/11/27 04:08:45;;;;;;;7.65;4.00;;;;;;;;;;5066362;28;20491;-61
2022/11/27 04:11:11;;;;;;;5.68;3.88;;;;;;;;;;5065372;28;20131;-61
2022/11/27 04:13:37;;;;;;;7.60;4.10;;;;;;;;;;5065103;28;20123;-61
2022/11/27 04:16:03;;;;;;;7.95;3.40;;;;;;;;;;5066684;28;20072;-61
2022/11/27 04:18:29;;;;;;;9.35;4.85;;;;;;;;;;5063849;28;20125;-60
2022/11/27 04:20:56;;;;;;;6.93;3.80;;;;;;;;;;5065415;28;20040;-61
2022/11/27 04:23:22;;;;;;;7.50;3.75;;;;;;;;;;5064517;28;20052;-61
2022/11/27 04:25:48;;;;;;;7.28;4.10;;;;;;;;;;5064180;28;20482;-61
2022/11/27 04:28:16;;;;;;;6.15;3.78;;;;;;;;;;5064661;28;20151;-61
2022/11/27 04:30:42;;;;;;;9.40;3.83;;;;;;;;;;5065434;28;20048;-61
2022/11/27 04:33:08;;;;;;;8.32;4.30;;;;;;;;;;5064646;28;20048;-61
2022/11/27 04:35:34;;;;;;;8.00;3.80;;;;;;;;;;5065041;28;20052;-61
2022/11/27 04:38:00;;;;;;;4.07;2.95;;;;;;;;;;5065566;28;20040;-61
2022/11/27 04:40:26;;;;;;;7.72;3.42;;;;;;;;;;5063617;28;20106;-61
2022/11/27 04:42:52;;;;;;;5.55;3.78;;;;;;;;;;5065540;28;20047;-61
2022/11/27 04:45:18;;;;;;;7.75;3.63;;;;;;;;;;5064583;28;20769;-61
2022/11/27 04:47:44;;;;;;;9.43;4.57;;;;;;;;;;5064846;28;20752;-61
2022/11/27 04:50:10;;;;;;;12.82;5.00;;;;;;;;;;5064895;28;20080;-61
2022/11/27 04:52:36;;;;;;;10.27;4.25;;;;;;;;;;5064605;28;20048;-61
2022/11/27 04:55:03;;;;;;;8.65;3.92;;;;;;;;;;5064033;28;20730;-61
2022/11/27 04:57:29;;;;;;;6.72;3.78;;;;;;;;;;5064032;28;20045;-61
2022/11/27 04:59:55;;;;;;;3.90;3.42;;;;;;;;;;5064851;28;20036;-61
2022/11/27 05:02:21;;;;;;;8.70;3.38;;;;;;;;;;5063799;28;20084;-61
2022/11/27 05:04:47;;;;;;;9.82;3.47;;;;;;;;;;5064678;28;20036;-61
2022/11/27 05:07:13;;;;;;;5.38;3.25;;;;;;;;;;5064567;28;20491;-61
2022/11/27 05:09:39;;;;;;;8.30;3.83;;;;;;;;;;5064067;28;20119;-60
2022/11/27 05:12:05;;;;;;;8.68;3.30;;;;;;;;;;5064483;28;20075;-61
2022/11/27 05:14:31;;;;;;;5.25;3.00;;;;;;;;;;5063494;28;20131;-61
2022/11/27 05:16:58;;;;;;;4.63;3.13;;;;;;;;;;5063659;28;20135;-61
2022/11/27 05:19:25;;;;;;;8.88;3.55;;;;;;;;;;5063609;28;20540;-60
2022/11/27 05:21:52;;;;;;;4.40;3.25;;;;;;;;;;5064956;28;20127;-61
2022/11/27 05:24:18;;;;;;;5.97;3.05;;;;;;;;;;5065012;28;20052;-61
2022/11/27 05:26:45;;;;;;;7.85;3.60;;;;;;;;;;5063922;28;20044;-61
2022/11/27 05:29:11;;;;;;;7.28;2.92;;;;;;;;;;5063586;28;20043;-60
2022/11/27 05:31:38;;;;;;;4.57;3.88;;;;;;;;;;5064172;28;20789;-60
2022/11/27 05:34:04;;;;;;;8.27;3.05;;;;;;;;;;5064191;28;20052;-61
2022/11/27 05:36:31;;;;;;;9.23;3.75;;;;;;;;;;5066740;28;20045;-61
2022/11/27 05:38:57;;;;;;;5.38;3.42;;;;;;;;;;5063983;28;20078;-61
2022/11/27 05:41:23;;;;;;;5.10;2.72;;;;;;;;;;5063841;28;20048;-61
2022/11/27 05:43:49;;;;;;;3.53;2.50;;;;;;;;;;5062811;28;20042;-60
2022/11/27 05:46:17;;;;;;;7.03;3.13;;;;;;;;;;5063631;28;20044;-61
2022/11/27 05:48:42;;;;;;;6.47;3.20;;;;;;;;;;5064465;28;20463;-61
2022/11/27 05:51:08;;;;;;;8.35;3.00;;;;;;;;;;5063377;28;20058;-61
2022/11/27 05:53:34;;;;;;;8.05;4.35;;;;;;;;;;5063416;28;20044;-61
2022/11/27 05:56:05;;;;;;;8.77;3.15;;;;;;;;;;5066440;28;20072;-61
2022/11/27 05:58:31;;;;;;;4.68;2.65;;;;;;;;;;5065061;28;20056;-61
2022/11/27 06:00:57;;;;;;;7.75;3.38;;;;;;;;;;5067807;28;20036;-61
2022/11/27 06:03:23;;;;;;;6.05;3.40;;;;;;;;;;5067039;28;20048;-60
2022/11/27 06:05:50;;;;;;;6.55;3.00;;;;;;;;;;5067273;28;20181;-60
2022/11/27 06:08:16;;;;;;;5.88;3.10;;;;;;;;;;5064712;28;20395;-61
2022/11/27 06:10:42;;;;;;;8.60;3.47;;;;;;;;;;5102469;27;20483;-60
2022/11/27 06:13:07;;;;;;;7.78;2.78;;;;;;;;;;5068509;28;20133;-60
2022/11/27 06:15:35;;;;;;;9.77;3.50;;;;;;;;;;5066630;28;20135;-61
2022/11/27 06:18:01;;;;;;;5.55;3.38;;;;;;;;;;5062677;28;20052;-61
2022/11/27 06:20:27;;;;;;;5.82;3.50;;;;;;;;;;5065961;28;20048;-61
2022/11/27 06:22:53;;;;;;;6.53;3.38;;;;;;;;;;5067266;28;20619;-60
2022/11/27 06:25:19;;;;;;;7.03;2.60;;;;;;;;;;5065846;28;20416;-61
2022/11/27 06:27:45;;;;;;;6.93;3.28;;;;;;;;;;5099225;27;20048;-61
2022/11/27 06:30:12;;;;;;;9.20;3.28;;;;;;;;;;5066842;28;20063;-60
2022/11/27 06:32:37;;;;;;;5.70;2.85;;;;;;;;;;5066012;28;20045;-61
2022/11/27 06:35:04;;;;;;;3.97;2.92;;;;;;;;;;5068450;28;20048;-61
2022/11/27 06:37:30;;;;;;;6.38;3.10;;;;;;;;;;5065935;28;20494;-60
2022/11/27 06:39:56;;;;;;;4.72;2.92;;;;;;;;;;5067992;28;20047;-60
2022/11/27 06:42:22;;;;;;;5.95;2.80;;;;;;;;;;5065996;28;20275;-61
2022/11/27 06:44:48;;;;;;;7.40;3.33;;;;;;;;;;5066873;28;20094;-61
2022/11/27 06:47:14;;;;;;;7.13;2.75;;;;;;;;;;5065843;28;20049;-60
2022/11/27 06:49:40;;;;;;;3.65;2.15;;;;;;;;;;5066602;28;20127;-61
2022/11/27 06:52:06;;;;;;;6.03;2.70;;;;;;;;;;5067127;28;20123;-60
2022/11/27 06:54:32;;;;;;;5.68;2.75;;;;;;;;;;5065471;28;20613;-61
2022/11/27 06:56:58;;;;;;;4.20;3.00;;;;;;;;;;5066871;28;20059;-61
2022/11/27 06:59:24;;;;;;;6.03;3.50;;;;;;;;;;5066128;28;20699;-61
2022/11/27 07:01:50;;;;;;;5.68;3.13;;;;;;;;;;5066048;28;20126;-61
2022/11/27 07:04:16;;;;;;;5.68;3.53;;;;;;;;;;5066008;28;20442;-61
2022/11/27 07:06:42;;;;;;;4.07;2.80;;;;;;;;;;5065705;28;20040;-60
2022/11/27 07:09:09;;;;;;;5.28;2.97;;;;;;;;;;5065537;28;20048;-61
2022/11/27 07:11:35;;;;;;;4.72;2.83;;;;;;;;;;5066989;28;21407;-61
2022/11/27 07:14:02;;;;;;;6.25;2.85;;;;;;;;;;5065580;28;20076;-61
2022/11/27 07:16:30;;;;;;;8.82;3.00;;;;;;;;;;5064821;28;20095;-61
2022/11/27 07:18:58;;;;;;;4.55;2.28;;;;;;;;;;5066110;28;20449;-61
2022/11/27 07:21:25;;;;;;;3.90;2.17;;;;;;;;;;5064241;28;20055;-61
2022/11/27 07:23:51;;;;;;;4.80;2.25;;;;;;;;;;5066368;28;20487;-60
2022/11/27 07:26:18;;;;;;;7.72;2.97;;;;;;;;;;5065618;28;20036;-61
2022/11/27 07:28:44;;;;;;;5.57;3.05;;;;;;;;;;5065726;28;20091;-61
2022/11/27 07:31:15;;;;;;;6.30;3.30;;;;;;;;;;5066992;28;20452;-61
2022/11/27 07:33:41;;;;;;;3.88;2.75;;;;;;;;;;5065260;28;20118;-61
2022/11/27 07:36:10;;;;;;;5.50;2.42;;;;;;;;;;5065763;28;20060;-61
2022/11/27 07:38:36;;;;;;;3.55;2.53;;;;;;;;;;5065411;28;20049;-61
2022/11/27 07:41:03;;;;;;;5.70;2.40;;;;;;;;;;5066047;28;20048;-61
2022/11/27 07:43:29;;;;;;;4.85;2.70;;;;;;;;;;5064178;28;20785;-61
2022/11/27 07:45:55;;;;;;;4.45;2.72;;;;;;;;;;5065429;28;20036;-61
2022/11/27 07:48:21;;;;;;;4.60;1.90;;;;;;;;;;5065492;28;20667;-61
2022/11/27 07:50:47;;;;;;;3.22;2.10;;;;;;;;;;5097835;28;20464;-61
2022/11/27 07:53:13;;;;;;;5.22;2.40;;;;;;;;;;5065602;28;20068;-61
2022/11/27 07:55:40;;;;;;;4.53;2.85;;;;;;;;;;5065193;28;20435;-61
2022/11/27 07:58:06;;;;;;;3.83;2.50;;;;;;;;;;5064980;28;20056;-61
2022/11/27 08:00:32;;;;;;;6.50;3.03;;;;;;;;;;5064332;28;20053;-61
2022/11/27 08:02:59;;;;;;;5.13;2.85;;;;;;;;;;5065851;28;20048;-61
2022/11/27 08:05:25;;;;;;;4.45;3.03;;;;;;;;;;5063510;28;20040;-61
2022/11/27 08:07:51;;;;;;;4.18;2.85;;;;;;;;;;5065733;28;20048;-61
2022/11/27 08:10:17;;;;;;;6.00;3.08;;;;;;;;;;5064850;28;20055;-61
2022/11/27 08:12:43;;;;;;;3.88;2.63;;;;;;;;;;5064688;28;20049;-60
2022/11/27 08:15:10;;;;;;;6.72;3.13;;;;;;;;;;5062562;28;20429;-61
2022/11/27 08:17:36;;;;;;;5.10;3.28;;;;;;;;;;5064865;28;20826;-61
2022/11/27 08:20:03;;;;;;;8.38;3.17;;;;;;;;;;5067860;28;20068;-61
2022/11/27 08:22:29;;;;;;;6.50;3.08;;;;;;;;;;5065758;28;20059;-61
2022/11/27 08:24:55;;;;;;;3.47;2.42;;;;;;;;;;5063515;28;20041;-61
2022/11/27 08:27:21;;;;;;;5.10;2.80;;;;;;;;;;5067690;28;20483;-61
2022/11/27 08:29:47;;;;;;;5.30;3.35;;;;;;;;;;5064659;28;20043;-61
2022/11/27 08:32:13;;;;;;;4.55;3.20;;;;;;;;;;5063652;28;20498;-61
2022/11/27 08:34:39;;;;;;;4.60;2.78;;;;;;;;;;5067028;28;20037;-61
2022/11/27 08:37:05;;;;;;;5.20;3.08;;;;;;;;;;5065065;28;20045;-60
2022/11/27 08:39:32;;;;;;;3.60;2.92;;;;;;;;;;5063623;28;20117;-61
2022/11/27 08:41:58;;;;;;;8.07;3.60;;;;;;;;;;5065645;28;20052;-61
2022/11/27 08:44:24;;;;;;;7.35;3.30;;;;;;;;;;5063914;28;20036;-61
2022/11/27 08:46:50;;;;;;;6.82;3.70;;;;;;;;;;5065831;28;20044;-61
2022/11/27 08:49:16;;;;;;;6.10;3.53;;;;;;;;;;5063853;28;20044;-61
2022/11/27 08:51:42;;;;;;;5.40;3.85;;;;;;;;;;5064759;28;20053;-60
2022/11/27 08:54:08;;;;;;;4.78;3.85;;;;;;;;;;5061292;28;20043;-61
2022/11/27 08:56:35;;;;;;;6.10;4.00;;;;;;;;;;5064495;28;20071;-61
2022/11/27 08:59:01;;;;;;;6.38;3.83;;;;;;;;;;5065727;28;20087;-61
2022/11/27 09:01:28;;;;;;;7.65;3.60;;;;;;;;;;5063253;28;20131;-61
2022/11/27 09:03:54;;;;;;;6.03;4.05;;;;;;;;;;5065870;28;20402;-61
2022/11/27 09:06:22;;;;;;;7.22;3.60;;;;;;;;;;5066310;28;20538;-61
2022/11/27 09:08:48;;;;;;;9.57;3.95;;;;;;;;;;5063180;28;20039;-61
2022/11/27 09:11:15;;;;;;;7.15;4.30;;;;;;;;;;5065010;28;20451;-61
2022/11/27 09:13:42;;;;;;;5.78;4.03;;;;;;;;;;5064720;28;20053;-61
2022/11/27 09:16:09;;;;;;;6.88;4.30;;;;;;;;;;5067502;28;20096;-61
2022/11/27 09:18:35;;;;;;;9.00;4.20;;;;;;;;;;5064343;28;20045;-61
2022/11/27 09:21:02;;;;;;;7.45;4.72;;;;;;;;;;5063605;28;20044;-61
2022/11/27 09:23:29;;;;;;;4.70;3.80;;;;;;;;;;5063273;28;20045;-61
2022/11/27 09:25:58;;;;;;;5.28;3.50;;;;;;;;;;5065167;28;20040;-61
2022/11/27 09:28:24;;;;;;;5.63;4.15;;;;;;;;;;5061521;28;20150;-61
2022/11/27 09:30:54;;;;;;;5.15;3.33;;;;;;;;;;5067571;28;20494;-61
2022/11/27 09:33:20;;;;;;;5.35;3.80;;;;;;;;;;5069025;28;20044;-60
2022/11/27 09:35:46;;;;;;;7.05;4.00;;;;;;;;;;5067558;28;20139;-61
2022/11/27 09:38:12;;;;;;;7.13;4.03;;;;;;;;;;5068379;28;20083;-61
2022/11/27 09:40:42;;;;;;;4.97;3.95;;;;;;;;;;5069854;28;20509;-61
2022/11/27 09:43:10;;;;;;;7.63;4.10;;;;;;;;;;5067904;28;20045;-61
2022/11/27 09:45:43;;;;;;;5.13;4.20;;;;;;;;;;5067032;28;20728;-61
2022/11/27 09:48:12;;;;;;;6.60;3.72;;;;;;;;;;5069130;28;20438;-61
2022/11/27 09:50:48;;;;;;;5.05;3.45;;;;;;;;;;5061662;28;20041;-61
2022/11/27 09:53:39;;;;;;;8.35;4.25;;;;;;;;;;5063639;28;20051;-61
2022/11/27 09:56:06;;;;;;;6.43;4.20;;;;;;;;;;5065829;28;20048;-61
2022/11/27 09:58:35;;;;;;;6.82;4.63;;;;;;;;;;5068155;28;20055;-61
2022/11/27 10:01:08;;;;;;;6.28;3.88;;;;;;;;;;5069681;28;20084;-61
2022/11/27 10:03:34;;;;;;;8.05;4.15;;;;;;;;;;5067212;28;20055;-61
2022/11/27 10:06:24;;;;;;;7.78;4.65;;;;;;;;;;5068792;28;20045;-61
2022/11/27 10:09:02;;;;;;;8.75;4.07;;;;;;;;;;5066877;28;20044;-61
2022/11/27 10:11:34;;;;;;;8.60;4.18;;;;;;;;;;5074729;28;20506;-61
2022/11/27 10:14:03;;;;;;;6.90;5.22;;;;;;;;;;5074275;28;20063;-60
2022/11/27 10:16:44;;;;;;;7.63;4.70;;;;;;;;;;5080096;28;20044;-60
2022/11/27 10:19:21;;;;;;;9.13;5.70;;;;;;;;;;5072859;28;20045;-61
2022/11/27 10:21:50;;;;;;;6.75;4.32;;;;;;;;;;5075317;28;20502;-60
2022/11/27 10:24:18;;;;;;;5.15;3.88;;;;;;;;;;5071580;28;20045;-61
2022/11/27 10:26:46;;;;;;;8.90;4.57;;;;;;;;;;5070943;28;20143;-60
2022/11/27 10:29:31;;;;;;;5.18;4.57;;;;;;;;;;5080466;28;20093;-53
2022/11/27 10:32:00;;;;;;;5.25;4.30;;;;;;;;;;5075406;28;20951;-54
2022/11/27 10:34:34;;;;;;;8.13;5.00;;;;;;;;;;5073274;28;20100;-55
2022/11/27 10:37:01;;;;;;;9.88;5.88;;;;;;;;;;5068027;28;20041;-60
2022/11/27 10:39:39;;;;;;;6.75;5.13;;;;;;;;;;5067698;28;20135;-60
2022/11/27 10:42:10;;;;;;;8.30;5.22;;;;;;;;;;5084088;28;20099;-61
2022/11/27 10:44:42;;;;;;;10.20;5.82;;;;;;;;;;5072094;28;20052;-61
2022/11/27 10:47:10;;;;;;;7.57;5.13;;;;;;;;;;5101900;27;20053;-61
2022/11/27 10:49:39;;;;;;;7.97;5.45;;;;;;;;;;5072846;28;20045;-61
2022/11/27 10:52:05;;;;;;;7.47;4.85;;;;;;;;;;5068080;28;20072;-61
2022/11/27 10:54:36;;;;;;;4.80;4.10;;;;;;;;;;5065691;28;20106;-61
2022/11/27 10:57:11;;;;;;;7.13;5.30;;;;;;;;;;5067681;28;20127;-61
2022/11/27 10:59:42;;;;;;;6.68;5.13;;;;;;;;;;5066174;28;20682;-61
2022/11/27 11:02:25;;;;;;;6.75;5.00;;;;;;;;;;5066905;28;20063;-61
2022/11/27 11:04:51;;;;;;;6.65;4.70;;;;;;;;;;5097910;28;20040;-61
2022/11/27 11:07:27;;;;;;;9.10;5.13;;;;;;;;;;5065631;28;20560;-61
2022/11/27 11:09:54;;;;;;;6.40;4.32;;;;;;;;;;5065184;28;20051;-61
2022/11/27 11:12:21;;;;;;;8.90;5.40;;;;;;;;;;5065973;28;20044;-61
2022/11/27 11:14:51;;;;;;;7.32;4.55;;;;;;;;;;5066124;28;20105;-61
2022/11/27 11:17:17;;;;;;;9.77;5.88;;;;;;;;;;5066829;28;20539;-61
2022/11/27 11:19:44;;;;;;;7.63;5.28;;;;;;;;;;5067161;28;20048;-61
2022/11/27 11:22:16;;;;;;;8.02;6.30;;;;;;;;;;5065583;28;20123;-61
2022/11/27 11:24:47;;;;;;;9.55;4.80;;;;;;;;;;5066392;28;20036;-61
2022/11/27 11:27:39;;;;;;;9.52;6.07;;;;;;;;;;5066626;28;20080;-61
2022/11/27 11:30:06;;;;;;;8.65;5.85;;;;;;;;;;5065002;28;20052;-61
2022/11/27 11:32:34;;;;;;;11.93;6.05;;;;;;;;;;5067100;28;20048;-61
2022/11/27 11:35:07;;;;;;;10.02;6.75;;;;;;;;;;5065359;28;20583;-61
2022/11/27 11:37:34;;;;;;;8.27;5.97;;;;;;;;;;5065078;28;20044;-61
2022/11/27 11:40:03;;;;;;;8.43;6.13;;;;;;;;;;5065903;28;20538;-61
2022/11/27 11:42:30;;;;;;;8.70;5.32;;;;;;;;;;5064425;28;20560;-61
2022/11/27 11:45:02;;;;;;;7.07;5.57;;;;;;;;;;5065769;28;20032;-61
2022/11/27 11:47:29;;;;;;;8.55;5.50;;;;;;;;;;5065210;28;20156;-61
2022/11/27 11:49:56;;;;;;;8.75;5.88;;;;;;;;;;5061648;28;20032;-60
2022/11/27 11:52:37;;;;;;;9.45;5.80;;;;;;;;;;5066086;28;20082;-60
2022/11/27 11:55:12;;;;;;;9.85;6.25;;;;;;;;;;5070510;28;20048;-61
2022/11/27 11:57:38;;;;;;;12.02;6.10;;;;;;;;;;5070331;28;20075;-61
2022/11/27 12:00:06;;;;;;;9.07;6.10;;;;;;;;;;5073942;28;20076;-60
2022/11/27 12:02:39;;;;;;;8.63;5.97;;;;;;;;;;5072092;28;20052;-61
2022/11/27 12:05:31;;;;;;;9.23;6.38;;;;;;;;;;5067679;28;20056;-60
2022/11/27 12:08:13;;;;;;;7.43;5.38;;;;;;;;;;5068916;28;20056;-63
2022/11/27 12:10:39;;;;;;;9.37;5.23;;;;;;;;;;5064131;28;20052;-62
2022/11/27 12:13:15;;;;;;;12.48;5.57;;;;;;;;;;5070010;28;20067;-61
2022/11/27 12:15:46;;;;;;;7.15;5.32;;;;;;;;;;5065785;28;20101;-61
2022/11/27 12:18:24;;;;;;;7.00;5.35;;;;;;;;;;5066682;28;20064;-61
2022/11/27 12:21:05;;;;;;;9.13;5.68;;;;;;;;;;5071541;28;20048;-62
2022/11/27 12:23:49;;;;;;;6.78;4.63;;;;;;;;;;5065008;28;20056;-62
2022/11/27 12:26:38;;;;;;;6.35;5.15;;;;;;;;;;5067429;28;20044;-61
2022/11/27 12:29:10;;;;;;;7.80;5.38;;;;;;;;;;5041836;28;20052;-62
2022/11/27 12:31:46;;;;;;;7.53;5.82;;;;;;;;;;5058710;28;20106;-61
2022/11/27 12:34:24;;;;;;;5.43;4.85;;;;;;;;;;5060064;28;20059;-61
2022/11/27 12:37:04;;;;;;;6.18;4.70;;;;;;;;;;5063552;28;20049;-61
2022/11/27 12:39:38;;;;;;;8.73;4.72;;;;;;;;;;5060318;28;20043;-61
2022/11/27 12:42:23;;;;;;;7.38;5.50;;;;;;;;;;5064977;28;20093;-62
2022/11/27 12:45:07;;;;;;;7.93;5.18;;;;;;;;;;5063664;28;20090;-61
2022/11/27 12:47:39;;;;;;;6.70;4.80;;;;;;;;;;5063548;28;20040;-61
2022/11/27 12:50:20;;;;;;;7.60;4.65;;;;;;;;;;5062956;28;20048;-62
2022/11/27 12:52:50;;;;;;;7.55;5.32;;;;;;;;;;5064449;28;20129;-61
2022/11/27 12:55:20;;;;;;;8.90;4.88;;;;;;;;;;5064735;28;20094;-62
2022/11/27 12:57:49;;;;;;;6.28;4.88;;;;;;;;;;5063235;28;20124;-61
2022/11/27 13:00:15;;;;;;;8.18;4.95;;;;;;;;;;5064271;28;20041;-61
2022/11/27 13:02:45;;;;;;;6.65;4.60;;;;;;;;;;5064913;28;20071;-61
2022/11/27 13:05:15;;;;;;;5.93;4.50;;;;;;;;;;5065215;28;20858;-61
2022/11/27 13:07:44;;;;;;;10.48;6.55;;;;;;;;;;5068210;28;20044;-62
2022/11/27 13:10:19;;;;;;;12.35;7.72;;;;;;;;;;5069070;28;20135;-62
2022/11/27 13:12:51;;;;;;;11.95;7.13;;;;;;;;;;5071397;28;20739;-61
2022/11/27 13:15:29;;;;;;;9.45;6.47;;;;;;;;;;5068837;28;20399;-61
2022/11/27 13:18:28;;;;;;;9.57;5.47;;;;;;;;;;5068864;28;20501;-61
2022/11/27 13:20:54;;;;;;;6.95;5.35;;;;;;;;;;5043950;28;20071;-61
2022/11/27 13:23:20;;;;;;;5.15;4.15;;;;;;;;;;5071538;28;20053;-61
2022/11/27 13:25:50;;;;;;;6.80;4.30;;;;;;;;;;5068466;28;20395;-61
2022/11/27 13:28:22;;;;;;;7.25;5.28;;;;;;;;;;5068173;28;20539;-61
2022/11/27 13:30:49;;;;;;;7.40;4.57;;;;;;;;;;5069341;28;20037;-61
2022/11/27 13:33:22;;;;;;;7.90;5.32;;;;;;;;;;5069319;28;20072;-62
2022/11/27 13:35:48;;;;;;;;;;;;;;;;;;5068696;28;20076;-62
2022/11/27 13:38:21;;;;;;;11.48;5.03;;;;;;;;;;5069313;28;19963;-62
2022/11/27 13:40:48;;;;;;;7.15;5.28;;;;;;;;;;5066692;28;20044;-62
2022/11/27 13:43:20;;;;;;;7.50;4.97;;;;;;;;;;5067580;28;20565;-62
2022/11/27 13:45:46;;;;;;;6.35;4.32;;;;;;;;;;5068494;28;20045;-62
2022/11/27 13:48:26;;;;;;;5.15;4.50;;;;;;;;;;5067914;28;20150;-62
2022/11/27 13:50:52;;;;;;;6.40;4.35;;;;;;;;;;5068858;28;20270;-62
2022/11/27 13:53:29;;;;;;;8.25;4.65;;;;;;;;;;5068152;28;20484;-63
2022/11/27 13:55:56;;;;;;;7.25;5.20;;;;;;;;;;5067924;28;20042;-62
2022/11/27 13:58:39;;;;;;;7.30;4.65;;;;;;;;;;5068540;28;20127;-62
2022/11/27 14:01:05;;;;;;;;;;;;;;;;;;5066128;28;20052;-62
2022/11/27 14:03:31;;;;;;;7.45;4.07;;;;;;;;;;5067159;28;20680;-62
2022/11/27 14:05:57;;;;;;;7.55;4.93;;;;;;;;;;5067674;28;20119;-62
2022/11/27 14:08:30;;;;;;;6.50;4.55;;;;;;;;;;5064311;28;20076;-62
2022/11/27 14:10:57;;;;;;;7.05;4.78;;;;;;;;;;5065813;28;20048;-62
2022/11/27 14:13:32;;;;;;;5.00;4.20;;;;;;;;;;5067450;28;20553;-62
2022/11/27 14:16:00;;;;;;;9.65;4.97;;;;;;;;;;5067505;28;20094;-62
2022/11/27 14:18:27;;;;;;;5.80;4.57;;;;;;;;;;5097081;27;20049;-62
2022/11/27 14:20:56;;;;;;;6.10;4.10;;;;;;;;;;5067851;28;20057;-62
2022/11/27 14:23:45;;;;;;;4.60;3.70;;;;;;;;;;5066700;28;20055;-62
2022/11/27 14:26:14;;;;;;;4.45;3.67;;;;;;;;;;5060109;28;20044;-62
2022/11/27 14:28:42;;;;;;;7.03;3.83;;;;;;;;;;5067110;28;20063;-62
2022/11/27 14:31:22;;;;;;;5.43;3.58;;;;;;;;;;5067076;28;20051;-62
2022/11/27 14:33:48;;;;;;;4.15;3.63;;;;;;;;;;5066705;28;20062;-62
2022/11/27 14:36:24;;;;;;;7.28;4.07;;;;;;;;;;5067445;28;20570;-62
2022/11/27 14:38:50;;;;;;;4.05;3.65;;;;;;;;;;5066490;28;20037;-62
2022/11/27 14:41:18;;;;;;;4.63;3.88;;;;;;;;;;5067300;28;20103;-62
2022/11/27 14:43:44;;;;;;;3.80;3.40;;;;;;;;;;5067295;28;20391;-62
2022/11/27 14:46:17;;;;;;;5.22;4.25;;;;;;;;;;5064389;28;20048;-62
2022/11/27 14:48:48;;;;;;;6.30;4.07;;;;;;;;;;5066989;28;20044;-62
2022/11/27 14:51:16;;;;;;;4.30;3.50;;;;;;;;;;5067256;28;20045;-62
2022/11/27 14:53:42;;;;;;;5.38;3.38;;;;;;;;;;5066533;28;20036;-62